createdAt,value
2018-12-29T00:01:28.386Z,102998.61
2018-12-29T00:03:59.122Z,102998.80
2018-12-29T00:06:29.872Z,102997.10
2018-12-29T00:09:00.653Z,102997.30
2018-12-29T00:11:31.429Z,103002.43
2018-12-29T00:14:02.263Z,103012.20
2018-12-29T00:16:33.139Z,103004.88
2018-12-29T00:19:03.973Z,103001.94
2018-12-29T00:21:34.753Z,103002.13
2018-12-29T00:24:05.526Z,103004.28
2018-12-29T00:26:36.363Z,103007.27
2018-12-29T00:29:07.165Z,103003.31
2018-12-29T00:31:37.934Z,103007.16
2018-12-29T00:34:08.760Z,103011.37
2018-12-29T00:36:39.566Z,103007.34
2018-12-29T00:39:10.317Z,103010.97
2018-12-29T00:41:41.079Z,103009.98
2018-12-29T00:44:11.911Z,103003.01
2018-12-29T00:46:42.650Z,102999.87
2018-12-29T00:49:13.372Z,103003.31
2018-12-29T00:51:44.151Z,103012.44
2018-12-29T00:54:15.298Z,103017.71
2018-12-29T00:56:46.116Z,103011.61
2018-12-29T00:59:17.040Z,103018.59
2018-12-29T01:01:47.969Z,103020.05
2018-12-29T01:04:18.760Z,103016.59
2018-12-29T01:06:49.523Z,103007.20
2018-12-29T01:09:20.245Z,103008.67
2018-12-29T01:11:50.988Z,103003.20
2018-12-29T01:14:21.714Z,103002.70
2018-12-29T01:16:52.617Z,103006.86
2018-12-29T01:19:23.365Z,102997.62
2018-12-29T01:21:54.144Z,103000.06
2018-12-29T01:24:24.871Z,103008.59
2018-12-29T01:26:55.705Z,103006.58
2018-12-29T01:29:26.502Z,103004.77
2018-12-29T01:31:57.251Z,102995.39
2018-12-29T01:34:28.088Z,103001.00
2018-12-29T01:36:58.873Z,103009.60
2018-12-29T01:39:29.629Z,103004.62
2018-12-29T01:42:00.381Z,103001.83
2018-12-29T01:44:31.266Z,103003.94
2018-12-29T01:47:03.396Z,103013.70
2018-12-29T01:49:34.133Z,103005.79
2018-12-29T01:52:05.011Z,103009.86
2018-12-29T01:54:35.728Z,103008.53
2018-12-29T01:57:06.582Z,103003.31
2018-12-29T01:59:37.358Z,103006.15
2018-12-29T02:02:08.099Z,102998.23
2018-12-29T02:04:38.820Z,103012.61
2018-12-29T02:07:09.595Z,103014.40
2018-12-29T02:09:40.406Z,103012.36
2018-12-29T02:12:11.139Z,103021.34
2018-12-29T02:14:41.887Z,103022.23
2018-12-29T02:17:15.604Z,103023.19
2018-12-29T02:19:46.395Z,103024.32
2018-12-29T02:22:17.176Z,103020.61
2018-12-29T02:24:47.918Z,103024.05
2018-12-29T02:27:18.662Z,103023.25
2018-12-29T02:29:49.527Z,103025.26
2018-12-29T02:32:20.298Z,103029.08
2018-12-29T02:34:51.016Z,103027.59
2018-12-29T02:37:21.785Z,103024.62
2018-12-29T02:39:52.550Z,103027.52
2018-12-29T02:42:23.309Z,103031.17
2018-12-29T02:44:54.061Z,103030.53
2018-12-29T02:47:24.813Z,103034.80
2018-12-29T02:49:55.555Z,103040.27
2018-12-29T02:52:26.349Z,103045.05
2018-12-29T02:54:57.059Z,103041.78
2018-12-29T02:57:27.916Z,103048.70
2018-12-29T02:59:58.621Z,103046.06
2018-12-29T03:02:32.407Z,103041.58
2018-12-29T03:05:03.146Z,103045.94
2018-12-29T03:07:33.904Z,103051.08
2018-12-29T03:10:04.827Z,103044.37
2018-12-29T03:12:35.558Z,103045.60
2018-12-29T03:15:06.457Z,103036.94
2018-12-29T03:17:37.226Z,103035.63
2018-12-29T03:20:07.967Z,103030.05
2018-12-29T03:22:38.720Z,103034.30
2018-12-29T03:25:09.455Z,103039.47
2018-12-29T03:27:40.346Z,103040.41
2018-12-29T03:30:11.082Z,103027.70
2018-12-29T03:32:41.821Z,103032.80
2018-12-29T03:35:12.562Z,103028.53
2018-12-29T03:37:43.336Z,103030.64
2018-12-29T03:40:14.205Z,103021.25
2018-12-29T03:42:45.047Z,103018.27
2018-12-29T03:45:15.881Z,103016.32
2018-12-29T03:47:46.635Z,103017.64
2018-12-29T03:50:17.392Z,103014.20
2018-12-29T03:52:48.426Z,103007.08
2018-12-29T03:55:19.133Z,102998.17
2018-12-29T03:57:49.892Z,102997.55
2018-12-29T04:00:20.613Z,102988.30
2018-12-29T04:02:51.399Z,102981.52
2018-12-29T04:05:22.182Z,102989.63
2018-12-29T04:07:52.935Z,102991.33
2018-12-29T04:10:23.630Z,102986.69
2018-12-29T04:12:58.807Z,102987.18
2018-12-29T04:15:29.670Z,102985.47
2018-12-29T04:18:00.454Z,102979.02
2018-12-29T04:20:31.192Z,102977.55
2018-12-29T04:23:01.937Z,102979.02
2018-12-29T04:25:32.669Z,102980.33
2018-12-29T04:28:03.563Z,102980.94
2018-12-29T04:30:34.330Z,102975.55
2018-12-29T04:33:05.112Z,102970.32
2018-12-29T04:35:35.845Z,102969.20
2018-12-29T04:38:06.680Z,102961.77
2018-12-29T04:40:37.415Z,102967.73
2018-12-29T04:43:10.943Z,102967.73
2018-12-29T04:45:41.792Z,102964.30
2018-12-29T04:48:12.650Z,102964.50
2018-12-29T04:50:43.378Z,102957.52
2018-12-29T04:53:14.160Z,102963.03
2018-12-29T04:55:44.892Z,102964.11
2018-12-29T04:58:15.746Z,102958.50
2018-12-29T05:00:46.471Z,102954.05
2018-12-29T05:03:17.248Z,102954.54
2018-12-29T05:05:47.969Z,102952.23
2018-12-29T05:08:18.825Z,102958.50
2018-12-29T05:10:49.949Z,102955.56
2018-12-29T05:13:20.808Z,102950.91
2018-12-29T05:15:51.575Z,102951.73
2018-12-29T05:18:22.305Z,102947.06
2018-12-29T05:20:53.098Z,102951.55
2018-12-29T05:23:23.864Z,102957.42
2018-12-29T05:25:54.615Z,102962.02
2018-12-29T05:28:25.378Z,102961.38
2018-12-29T05:30:56.123Z,102962.70
2018-12-29T05:33:26.961Z,102960.20
2018-12-29T05:35:57.715Z,102962.84
2018-12-29T05:38:28.419Z,102967.23
2018-12-29T05:40:59.175Z,102979.06
2018-12-29T05:43:30.000Z,102978.04
2018-12-29T05:46:00.736Z,102990.22
2018-12-29T05:48:31.441Z,102995.20
2018-12-29T05:51:02.195Z,103000.88
2018-12-29T05:53:33.022Z,103007.97
2018-12-29T05:56:03.768Z,103011.05
2018-12-29T05:58:34.494Z,103013.98
2018-12-29T06:01:05.303Z,103015.83
2018-12-29T06:03:36.128Z,103012.86
2018-12-29T06:06:06.941Z,103020.48
2018-12-29T06:08:37.665Z,103016.02
2018-12-29T06:11:08.367Z,103013.00
2018-12-29T06:13:39.439Z,103025.17
2018-12-29T06:16:10.304Z,103030.45
2018-12-29T06:18:41.027Z,103027.81
2018-12-29T06:21:11.832Z,103024.34
2018-12-29T06:23:42.582Z,103021.66
2018-12-29T06:26:13.343Z,103015.55
2018-12-29T06:28:44.251Z,103009.77
2018-12-29T06:31:14.990Z,103015.05
2018-12-29T06:33:45.831Z,103018.43
2018-12-29T06:36:16.613Z,103012.55
2018-12-29T06:38:47.415Z,103018.91
2018-12-29T06:41:18.111Z,103008.59
2018-12-29T06:43:48.857Z,103007.08
2018-12-29T06:46:19.566Z,103004.93
2018-12-29T06:48:50.385Z,103015.63
2018-12-29T06:51:21.137Z,103015.10
2018-12-29T06:53:51.901Z,103016.42
2018-12-29T06:56:22.625Z,103010.75
2018-12-29T06:58:53.553Z,103013.48
2018-12-29T07:01:24.278Z,103016.52
2018-12-29T07:03:55.035Z,103018.43
2018-12-29T07:06:25.776Z,103018.96
2018-12-29T07:08:56.569Z,103026.88
2018-12-29T07:11:27.316Z,103023.03
2018-12-29T07:13:58.081Z,103020.72
2018-12-29T07:16:28.902Z,103026.44
2018-12-29T07:18:59.768Z,103028.45
2018-12-29T07:21:30.466Z,103028.11
2018-12-29T07:24:01.570Z,103028.74
2018-12-29T07:26:32.313Z,103031.09
2018-12-29T07:29:04.160Z,103031.72
2018-12-29T07:31:34.921Z,103040.44
2018-12-29T07:34:05.774Z,103037.41
2018-12-29T07:36:36.492Z,103054.58
2018-12-29T07:39:08.541Z,103048.60
2018-12-29T07:41:39.264Z,103049.63
2018-12-29T07:44:10.010Z,103044.34
2018-12-29T07:46:40.773Z,103043.02
2018-12-29T07:49:11.574Z,103033.77
2018-12-29T07:51:42.371Z,103034.02
2018-12-29T07:54:13.104Z,103034.21
2018-12-29T07:56:43.814Z,103032.70
2018-12-29T07:59:14.578Z,103036.27
2018-12-29T08:01:45.313Z,103033.00
2018-12-29T08:04:16.071Z,103038.02
2018-12-29T08:06:46.801Z,103029.17
2018-12-29T08:09:17.686Z,103026.14
2018-12-29T08:11:48.460Z,103024.81
2018-12-29T08:14:19.180Z,103030.10
2018-12-29T08:16:56.677Z,103033.57
2018-12-29T08:19:22.360Z,103026.97
2018-12-29T08:21:53.108Z,103021.59
2018-12-29T08:24:23.916Z,103015.12
2018-12-29T08:26:54.610Z,103015.41
2018-12-29T08:29:25.507Z,103017.56
2018-12-29T08:31:56.259Z,103017.17
2018-12-29T08:34:27.061Z,103009.05
2018-12-29T08:36:57.791Z,103012.22
2018-12-29T08:39:28.549Z,102995.67
2018-12-29T08:41:59.311Z,103008.88
2018-12-29T08:44:30.163Z,103000.23
2018-12-29T08:47:04.475Z,102996.07
2018-12-29T08:49:33.363Z,102998.88
2018-12-29T08:52:04.174Z,102993.76
2018-12-29T08:54:35.003Z,102999.41
2018-12-29T08:57:05.742Z,102992.07
2018-12-29T08:59:36.489Z,102992.04
2018-12-29T09:02:07.217Z,102983.78
2018-12-29T09:04:37.986Z,102988.38
2018-12-29T09:07:08.796Z,102991.34
2018-12-29T09:09:39.618Z,102992.47
2018-12-29T09:12:10.399Z,102990.25
2018-12-29T09:14:41.321Z,102991.88
2018-12-29T09:17:12.522Z,102997.59
2018-12-29T09:19:43.394Z,102992.03
2018-12-29T09:22:14.090Z,102990.75
2018-12-29T09:24:44.844Z,103009.82
2018-12-29T09:27:15.553Z,102996.29
2018-12-29T09:29:46.378Z,103004.42
2018-12-29T09:32:17.157Z,102996.49
2018-12-29T09:34:47.987Z,102991.63
2018-12-29T09:37:18.868Z,102994.55
2018-12-29T09:39:49.638Z,102983.59
2018-12-29T09:42:20.373Z,102979.72
2018-12-29T09:44:51.153Z,102974.45
2018-12-29T09:47:22.033Z,102973.75
2018-12-29T09:49:52.787Z,102971.19
2018-12-29T09:52:23.510Z,102962.13
2018-12-29T09:54:54.307Z,102944.64
2018-12-29T09:57:25.093Z,102945.97
2018-12-29T09:59:55.896Z,102932.66
2018-12-29T10:02:26.679Z,102919.73
2018-12-29T10:04:57.610Z,102923.33
2018-12-29T10:07:28.347Z,102910.60
2018-12-29T10:09:59.105Z,102906.84
2018-12-29T10:12:29.838Z,102894.64
2018-12-29T10:15:00.664Z,102894.73
2018-12-29T10:17:31.386Z,102888.41
2018-12-29T10:20:02.176Z,102883.53
2018-12-29T10:22:32.932Z,102890.05
2018-12-29T10:25:03.819Z,102882.11
2018-12-29T10:27:34.531Z,102875.61
2018-12-29T10:30:05.633Z,102865.82
2018-12-29T10:32:36.404Z,102868.99
2018-12-29T10:35:07.175Z,102868.88
2018-12-29T10:37:37.915Z,102878.95
2018-12-29T10:40:08.836Z,102879.99
2018-12-29T10:42:39.611Z,102866.00
2018-12-29T10:45:10.354Z,102868.16
2018-12-29T10:47:41.094Z,102873.56
2018-12-29T10:50:11.908Z,102883.54
2018-12-29T10:52:42.643Z,102887.51
2018-12-29T10:55:13.665Z,102889.45
2018-12-29T10:57:44.424Z,102894.13
2018-12-29T11:00:15.203Z,102883.03
2018-12-29T11:02:46.100Z,102874.67
2018-12-29T11:05:17.020Z,102859.87
2018-12-29T11:07:47.727Z,102845.31
2018-12-29T11:10:18.574Z,102837.38
2018-12-29T11:12:49.372Z,102822.61
2018-12-29T11:15:20.192Z,102813.61
2018-12-29T11:17:50.915Z,102809.28
2018-12-29T11:20:21.748Z,102803.67
2018-12-29T11:22:52.629Z,102803.14
2018-12-29T11:25:23.364Z,102814.35
2018-12-29T11:27:54.174Z,102818.94
2018-12-29T11:30:24.914Z,102832.22
2018-12-29T11:32:55.793Z,102832.52
2018-12-29T11:35:29.008Z,102823.23
2018-12-29T11:37:59.011Z,102820.83
2018-12-29T11:40:29.815Z,102803.31
2018-12-29T11:43:00.635Z,102802.09
2018-12-29T11:45:31.356Z,102809.48
2018-12-29T11:48:02.126Z,102800.34
2018-12-29T11:50:32.878Z,102788.89
2018-12-29T11:53:03.721Z,102778.28
2018-12-29T11:55:34.999Z,102764.50
2018-12-29T11:58:05.806Z,102759.30
2018-12-29T12:00:36.570Z,102756.16
2018-12-29T12:03:07.356Z,102743.56
2018-12-29T12:05:38.090Z,102748.82
2018-12-29T12:08:09.272Z,102762.30
2018-12-29T12:10:40.008Z,102788.88
2018-12-29T12:13:10.887Z,102778.16
2018-12-29T12:15:41.687Z,102765.02
2018-12-29T12:18:12.500Z,102752.58
2018-12-29T12:20:43.334Z,102740.80
2018-12-29T12:23:14.119Z,102723.91
2018-12-29T12:25:44.844Z,102718.03
2018-12-29T12:28:15.809Z,102727.98
2018-12-29T12:30:46.597Z,102718.05
2018-12-29T12:33:17.643Z,102728.31
2018-12-29T12:35:48.512Z,102745.53
2018-12-29T12:38:19.592Z,102725.06
2018-12-29T12:40:50.509Z,102710.09
2018-12-29T12:43:21.710Z,102717.11
2018-12-29T12:45:52.709Z,102720.58
2018-12-29T12:48:23.503Z,102711.80
2018-12-29T12:50:54.515Z,102703.23
2018-12-29T12:53:25.302Z,102716.33
2018-12-29T12:55:56.023Z,102722.23
2018-12-29T12:58:27.027Z,102734.40
2018-12-29T13:00:58.027Z,102715.16
2018-12-29T13:03:29.166Z,102721.03
2018-12-29T13:05:59.885Z,102729.59
2018-12-29T13:08:30.671Z,102736.05
2018-12-29T13:11:01.423Z,102715.00
2018-12-29T13:13:32.315Z,102702.03
2018-12-29T13:16:03.086Z,102694.23
2018-12-29T13:18:33.877Z,102680.14
2018-12-29T13:21:04.839Z,102692.58
2018-12-29T13:23:35.609Z,102680.25
2018-12-29T13:26:06.863Z,102693.95
2018-12-29T13:28:37.634Z,102703.80
2018-12-29T13:31:08.435Z,102701.64
2018-12-29T13:33:40.269Z,102699.94
2018-12-29T13:36:11.040Z,102687.28
2018-12-29T13:38:41.829Z,102694.25
2018-12-29T13:41:12.614Z,102681.65
2018-12-29T13:43:43.481Z,102660.22
2018-12-29T13:46:14.296Z,102642.93
2018-12-29T13:48:45.140Z,102624.69
2018-12-29T13:51:15.912Z,102629.45
2018-12-29T13:53:46.754Z,102611.83
2018-12-29T13:56:17.488Z,102614.77
2018-12-29T13:58:48.283Z,102587.03
2018-12-29T14:01:19.060Z,102566.77
2018-12-29T14:03:49.816Z,102563.67
2018-12-29T14:06:20.555Z,102573.55
2018-12-29T14:08:51.620Z,102552.34
2018-12-29T14:11:22.371Z,102566.77
2018-12-29T14:13:53.185Z,102567.21
2018-12-29T14:16:24.031Z,102568.09
2018-12-29T14:18:55.072Z,102567.78
2018-12-29T14:21:25.826Z,102568.09
2018-12-29T14:23:56.655Z,102583.40
2018-12-29T14:26:27.445Z,102583.30
2018-12-29T14:28:58.376Z,102592.52
2018-12-29T14:31:29.166Z,102583.30
2018-12-29T14:33:59.960Z,102566.04
2018-12-29T14:36:30.965Z,102566.23
2018-12-29T14:39:01.737Z,102553.95
2018-12-29T14:41:32.517Z,102560.11
2018-12-29T14:44:03.419Z,102549.06
2018-12-29T14:46:34.228Z,102544.55
2018-12-29T14:49:05.054Z,102546.86
2018-12-29T14:51:35.870Z,102550.67
2018-12-29T14:54:07.102Z,102540.42
2018-12-29T14:56:37.870Z,102537.70
2018-12-29T14:59:08.602Z,102535.66
2018-12-29T15:01:39.671Z,102529.03
2018-12-29T15:04:10.642Z,102521.14
2018-12-29T15:06:41.442Z,102514.73
2018-12-29T15:09:12.206Z,102509.66
2018-12-29T15:11:42.970Z,102515.91
2018-12-29T15:14:13.794Z,102521.87
2018-12-29T15:16:44.825Z,102531.24
2018-12-29T15:19:15.590Z,102532.06
2018-12-29T15:21:46.444Z,102545.94
2018-12-29T15:24:17.250Z,102550.95
2018-12-29T15:26:48.000Z,102551.97
2018-12-29T15:29:19.055Z,102543.95
2018-12-29T15:31:49.788Z,102545.05
2018-12-29T15:34:20.572Z,102538.71
2018-12-29T15:36:51.307Z,102564.98
2018-12-29T15:39:22.382Z,102574.48
2018-12-29T15:41:53.166Z,102589.05
2018-12-29T15:44:24.053Z,102576.53
2018-12-29T15:46:55.161Z,102575.97
2018-12-29T15:49:26.006Z,102574.42
2018-12-29T15:51:56.720Z,102569.63
2018-12-29T15:54:27.488Z,102582.31
2018-12-29T15:56:58.212Z,102586.41
2018-12-29T15:59:29.323Z,102580.27
2018-12-29T16:02:00.089Z,102568.02
2018-12-29T16:04:30.831Z,102567.58
2018-12-29T16:07:01.714Z,102570.52
2018-12-29T16:09:32.904Z,102562.39
2018-12-29T16:12:03.721Z,102560.92
2018-12-29T16:14:35.503Z,102551.17
2018-12-29T16:17:06.438Z,102557.04
2018-12-29T16:19:37.297Z,102564.00
2018-12-29T16:22:08.037Z,102553.56
2018-12-29T16:24:38.791Z,102536.75
2018-12-29T16:27:09.829Z,102546.88
2018-12-29T16:29:40.581Z,102540.00
2018-12-29T16:32:11.284Z,102538.78
2018-12-29T16:34:42.068Z,102521.94
2018-12-29T16:37:12.888Z,102525.47
2018-12-29T16:39:43.923Z,102516.31
2018-12-29T16:42:14.789Z,102513.16
2018-12-29T16:44:45.586Z,102503.07
2018-12-29T16:47:16.362Z,102494.99
2018-12-29T16:49:47.267Z,102494.99
2018-12-29T16:52:18.360Z,102489.31
2018-12-29T16:54:49.172Z,102485.72
2018-12-29T16:57:20.024Z,102497.17
2018-12-29T16:59:50.820Z,102500.45
2018-12-29T17:02:21.931Z,102489.28
2018-12-29T17:04:52.685Z,102488.97
2018-12-29T17:07:23.459Z,102479.21
2018-12-29T17:09:54.321Z,102472.07
2018-12-29T17:12:25.169Z,102471.87
2018-12-29T17:14:55.963Z,102472.42
2018-12-29T17:17:26.738Z,102463.12
2018-12-29T17:19:57.681Z,102459.39
2018-12-29T17:22:28.502Z,102455.25
2018-12-29T17:24:59.277Z,102468.15
2018-12-29T17:27:30.037Z,102466.52
2018-12-29T17:30:01.267Z,102451.56
2018-12-29T17:32:32.174Z,102457.34
2018-12-29T17:35:02.952Z,102454.63
2018-12-29T17:37:34.441Z,102470.75
2018-12-29T17:40:05.620Z,102460.14
2018-12-29T17:42:36.385Z,102474.50
2018-12-29T17:45:07.677Z,102466.02
2018-12-29T17:47:38.496Z,102464.25
2018-12-29T17:50:09.359Z,102460.28
2018-12-29T17:52:40.291Z,102477.37
2018-12-29T17:55:11.396Z,102456.24
2018-12-29T17:57:42.366Z,102467.22
2018-12-29T18:00:13.163Z,102467.80
2018-12-29T18:02:43.974Z,102466.91
2018-12-29T18:05:14.809Z,102464.67
2018-12-29T18:07:45.589Z,102457.12
2018-12-29T18:10:16.421Z,102441.12
2018-12-29T18:12:47.237Z,102449.81
2018-12-29T18:15:18.031Z,102452.63
2018-12-29T18:17:48.967Z,102458.58
2018-12-29T18:20:19.907Z,102453.51
2018-12-29T18:22:50.665Z,102452.18
2018-12-29T18:25:21.409Z,102439.87
2018-12-29T18:27:52.359Z,102434.94
2018-12-29T18:30:23.215Z,102458.58
2018-12-29T18:32:53.981Z,102453.65
2018-12-29T18:35:24.861Z,102452.60
2018-12-29T18:37:55.789Z,102460.28
2018-12-29T18:40:26.697Z,102453.65
2018-12-29T18:42:57.501Z,102453.22
2018-12-29T18:45:28.585Z,102451.27
2018-12-29T18:47:59.452Z,102447.30
2018-12-29T18:50:30.187Z,102448.06
2018-12-29T18:53:01.098Z,102446.59
2018-12-29T18:55:32.071Z,102449.02
2018-12-29T18:58:03.318Z,102444.94
2018-12-29T19:00:34.104Z,102448.92
2018-12-29T19:03:04.907Z,102449.28
2018-12-29T19:05:35.637Z,102444.34
2018-12-29T19:08:06.567Z,102445.08
2018-12-29T19:10:37.357Z,102451.56
2018-12-29T19:13:08.490Z,102449.05
2018-12-29T19:15:39.638Z,102460.09
2018-12-29T19:18:10.451Z,102463.00
2018-12-29T19:20:41.224Z,102463.18
2018-12-29T19:23:12.456Z,102463.23
2018-12-29T19:25:43.177Z,102469.03
2018-12-29T19:28:14.272Z,102456.79
2018-12-29T19:30:45.087Z,102450.99
2018-12-29T19:33:16.133Z,102465.79
2018-12-29T19:35:47.139Z,102469.03
2018-12-29T19:38:18.215Z,102450.58
2018-12-29T19:40:51.030Z,102457.17
2018-12-29T19:43:21.906Z,102455.23
2018-12-29T19:45:52.777Z,102450.20
2018-12-29T19:48:25.099Z,102458.93
2018-12-29T19:50:56.204Z,102443.17
2018-12-29T19:53:27.330Z,102447.08
2018-12-29T19:55:58.183Z,102435.73
2018-12-29T19:58:28.988Z,102443.55
2018-12-29T20:00:59.851Z,102433.28
2018-12-29T20:03:30.688Z,102437.31
2018-12-29T20:06:01.434Z,102433.98
2018-12-29T20:08:32.646Z,102435.12
2018-12-29T20:11:03.558Z,102443.80
2018-12-29T20:13:34.406Z,102431.56
2018-12-29T20:16:05.799Z,102438.25
2018-12-29T20:18:36.735Z,102438.44
2018-12-29T20:21:07.476Z,102437.16
2018-12-29T20:23:38.294Z,102434.89
2018-12-29T20:26:09.071Z,102440.13
2018-12-29T20:28:39.893Z,102440.05
2018-12-29T20:31:10.967Z,102445.09
2018-12-29T20:33:41.769Z,102446.65
2018-12-29T20:36:12.501Z,102449.86
2018-12-29T20:38:43.292Z,102455.09
2018-12-29T20:41:14.020Z,102453.69
2018-12-29T20:43:44.946Z,102464.66
2018-12-29T20:46:15.842Z,102468.02
2018-12-29T20:48:46.609Z,102469.39
2018-12-29T20:51:17.528Z,102472.56
2018-12-29T20:53:48.716Z,102473.61
2018-12-29T20:56:19.516Z,102473.48
2018-12-29T20:58:50.323Z,102466.39
2018-12-29T21:01:21.106Z,102460.68
2018-12-29T21:03:51.896Z,102474.20
2018-12-29T21:06:22.965Z,102475.64
2018-12-29T21:08:53.724Z,102486.44
2018-12-29T21:11:24.544Z,102487.48
2018-12-29T21:13:55.402Z,102479.28
2018-12-29T21:16:26.183Z,102490.77
2018-12-29T21:18:57.059Z,102497.88
2018-12-29T21:21:27.831Z,102499.01
2018-12-29T21:23:58.606Z,102498.23
2018-12-29T21:26:29.382Z,102490.97
2018-12-29T21:29:00.355Z,102491.36
2018-12-29T21:31:31.112Z,102493.90
2018-12-29T21:34:01.919Z,102500.78
2018-12-29T21:36:32.776Z,102509.97
2018-12-29T21:39:04.486Z,102518.17
2018-12-29T21:41:35.654Z,102513.67
2018-12-29T21:44:06.483Z,102516.96
2018-12-29T21:46:37.278Z,102523.44
2018-12-29T21:49:08.077Z,102524.66
2018-12-29T21:51:38.878Z,102531.66
2018-12-29T21:54:09.664Z,102521.64
2018-12-29T21:56:40.523Z,102526.48
2018-12-29T21:59:11.395Z,102514.05
2018-12-29T22:01:42.173Z,102518.08
2018-12-29T22:04:12.964Z,102526.05
2018-12-29T22:06:43.823Z,102534.21
2018-12-29T22:09:14.627Z,102538.55
2018-12-29T22:11:45.360Z,102538.91
2018-12-29T22:14:16.118Z,102545.02
2018-12-29T22:16:47.161Z,102540.50
2018-12-29T22:19:17.910Z,102539.98
2018-12-29T22:21:48.690Z,102534.67
2018-12-29T22:24:19.474Z,102528.84
2018-12-29T22:26:50.247Z,102531.37
2018-12-29T22:29:21.209Z,102531.30
2018-12-29T22:31:52.038Z,102532.82
2018-12-29T22:34:22.830Z,102540.98
2018-12-29T22:36:53.559Z,102542.19
2018-12-29T22:39:24.362Z,102562.77
2018-12-29T22:41:55.170Z,102579.33
2018-12-29T22:44:25.956Z,102570.48
2018-12-29T22:46:56.701Z,102562.72
2018-12-29T22:49:27.502Z,102559.47
2018-12-29T22:51:58.563Z,102557.39
2018-12-29T22:54:29.389Z,102564.69
2018-12-29T22:57:00.210Z,102584.72
2018-12-29T22:59:30.974Z,102576.55
2018-12-29T23:02:01.733Z,102579.51
2018-12-29T23:04:32.503Z,102573.33
2018-12-29T23:07:03.480Z,102579.84
2018-12-29T23:09:34.310Z,102578.64
2018-12-29T23:12:06.453Z,102579.51
2018-12-29T23:14:37.340Z,102565.87
2018-12-29T23:17:08.399Z,102578.23
2018-12-29T23:19:39.149Z,102586.56
2018-12-29T23:22:09.921Z,102587.53
2018-12-29T23:24:40.838Z,102590.73
2018-12-29T23:27:11.574Z,102594.14
2018-12-29T23:29:42.416Z,102593.78
2018-12-29T23:32:13.217Z,102588.42
2018-12-29T23:34:43.991Z,102599.33
2018-12-29T23:37:14.894Z,102599.61
2018-12-29T23:39:45.705Z,102603.77
2018-12-29T23:42:16.547Z,102606.58
2018-12-29T23:44:47.291Z,102628.50
2018-12-29T23:47:18.140Z,102624.58
2018-12-29T23:49:49.023Z,102623.47
2018-12-29T23:52:20.110Z,102631.53
2018-12-29T23:54:51.124Z,102633.09
2018-12-29T23:57:22.217Z,102638.31
2018-12-29T23:59:53.361Z,102636.02
